sensor_id;sensor_type;location;lat;lon;timestamp;temperature;humidity
23291;DHT22;11814;44.686;10.842;2022-12-18T00:03:42;9.00;99.90
23291;DHT22;11814;44.686;10.842;2022-12-18T00:06:09;9.00;99.90
23291;DHT22;11814;44.686;10.842;2022-12-18T00:08:35;9.00;99.90
23291;DHT22;11814;44.686;10.842;2022-12-18T00:11:08;9.00;99.90
23291;DHT22;11814;44.686;10.842;2022-12-18T00:13:34;9.00;99.90
23291;DHT22;11814;44.686;10.842;2022-12-18T00:16:09;9.00;99.90
23291;DHT22;11814;44.686;10.842;2022-12-18T00:18:35;9.00;99.90
23291;DHT22;11814;44.686;10.842;2022-12-18T00:21:04;9.00;99.90
23291;DHT22;11814;44.686;10.842;2022-12-18T00:23:31;9.00;99.90
23291;DHT22;11814;44.686;10.842;2022-12-18T00:26:05;9.00;99.90
23291;DHT22;11814;44.686;10.842;2022-12-18T00:28:32;8.90;99.90
23291;DHT22;11814;44.686;10.842;2022-12-18T00:31:03;8.90;99.90
23291;DHT22;11814;44.686;10.842;2022-12-18T00:33:29;8.90;99.90
23291;DHT22;11814;44.686;10.842;2022-12-18T00:36:01;8.90;99.90
23291;DHT22;11814;44.686;10.842;2022-12-18T00:38:27;8.90;99.90
23291;DHT22;11814;44.686;10.842;2022-12-18T00:40:56;8.80;99.90
23291;DHT22;11814;44.686;10.842;2022-12-18T00:43:22;8.90;99.90
23291;DHT22;11814;44.686;10.842;2022-12-18T00:45:47;8.90;99.90
23291;DHT22;11814;44.686;10.842;2022-12-18T00:48:13;8.80;99.90
23291;DHT22;11814;44.686;10.842;2022-12-18T00:50:39;8.80;99.90
23291;DHT22;11814;44.686;10.842;2022-12-18T00:53:05;8.80;99.90
23291;DHT22;11814;44.686;10.842;2022-12-18T00:55:30;8.70;99.90
23291;DHT22;11814;44.686;10.842;2022-12-18T00:57:56;8.80;99.90
23291;DHT22;11814;44.686;10.842;2022-12-18T01:00:22;8.70;99.90
23291;DHT22;11814;44.686;10.842;2022-12-18T01:02:48;8.70;99.90
23291;DHT22;11814;44.686;10.842;2022-12-18T01:05:15;8.70;99.90
23291;DHT22;11814;44.686;10.842;2022-12-18T01:07:41;8.70;99.90
23291;DHT22;11814;44.686;10.842;2022-12-18T01:10:08;8.60;99.90
23291;DHT22;11814;44.686;10.842;2022-12-18T01:12:34;8.50;99.90
23291;DHT22;11814;44.686;10.842;2022-12-18T01:15:01;8.40;99.90
23291;DHT22;11814;44.686;10.842;2022-12-18T01:17:26;8.30;99.90
23291;DHT22;11814;44.686;10.842;2022-12-18T01:19:52;8.20;99.90
23291;DHT22;11814;44.686;10.842;2022-12-18T01:22:18;8.10;99.90
23291;DHT22;11814;44.686;10.842;2022-12-18T01:24:44;8.10;99.90
23291;DHT22;11814;44.686;10.842;2022-12-18T01:27:09;8.10;99.90
23291;DHT22;11814;44.686;10.842;2022-12-18T01:29:35;8.00;99.90
23291;DHT22;11814;44.686;10.842;2022-12-18T01:32:01;7.90;99.90
23291;DHT22;11814;44.686;10.842;2022-12-18T01:34:27;7.90;99.90
23291;DHT22;11814;44.686;10.842;2022-12-18T01:36:52;7.90;99.90
23291;DHT22;11814;44.686;10.842;2022-12-18T01:39:19;7.90;99.90
23291;DHT22;11814;44.686;10.842;2022-12-18T01:41:45;7.90;99.90
23291;DHT22;11814;44.686;10.842;2022-12-18T01:47:39;7.80;99.90
23291;DHT22;11814;44.686;10.842;2022-12-18T01:50:30;7.70;99.90
23291;DHT22;11814;44.686;10.842;2022-12-18T01:53:19;7.70;99.90
23291;DHT22;11814;44.686;10.842;2022-12-18T01:55:49;7.70;99.90
23291;DHT22;11814;44.686;10.842;2022-12-18T01:58:16;7.60;99.90
23291;DHT22;11814;44.686;10.842;2022-12-18T02:00:42;7.60;99.90
23291;DHT22;11814;44.686;10.842;2022-12-18T02:03:08;7.60;99.90
23291;DHT22;11814;44.686;10.842;2022-12-18T02:05:53;7.60;99.90
23291;DHT22;11814;44.686;10.842;2022-12-18T02:09:10;7.60;99.90
23291;DHT22;11814;44.686;10.842;2022-12-18T02:11:46;7.60;99.90
23291;DHT22;11814;44.686;10.842;2022-12-18T02:14:28;7.60;99.90
23291;DHT22;11814;44.686;10.842;2022-12-18T02:17:17;7.60;99.90
23291;DHT22;11814;44.686;10.842;2022-12-18T02:20:12;7.60;99.90
23291;DHT22;11814;44.686;10.842;2022-12-18T02:28:19;7.70;99.90
23291;DHT22;11814;44.686;10.842;2022-12-18T02:30:47;7.80;99.90
23291;DHT22;11814;44.686;10.842;2022-12-18T02:33:15;7.80;99.90
23291;DHT22;11814;44.686;10.842;2022-12-18T02:35:42;7.80;99.90
23291;DHT22;11814;44.686;10.842;2022-12-18T02:38:09;7.80;99.90
23291;DHT22;11814;44.686;10.842;2022-12-18T02:40:37;7.80;99.90
23291;DHT22;11814;44.686;10.842;2022-12-18T02:43:08;7.80;99.90
23291;DHT22;11814;44.686;10.842;2022-12-18T02:45:34;7.80;99.90
23291;DHT22;11814;44.686;10.842;2022-12-18T02:48:00;7.80;99.90
23291;DHT22;11814;44.686;10.842;2022-12-18T02:55:45;7.70;99.90
23291;DHT22;11814;44.686;10.842;2022-12-18T03:04:07;7.50;99.90
23291;DHT22;11814;44.686;10.842;2022-12-18T03:06:39;7.50;99.90
23291;DHT22;11814;44.686;10.842;2022-12-18T03:09:12;7.50;99.90
23291;DHT22;11814;44.686;10.842;2022-12-18T03:11:42;7.50;99.90
23291;DHT22;11814;44.686;10.842;2022-12-18T03:14:30;7.40;99.90
23291;DHT22;11814;44.686;10.842;2022-12-18T03:17:00;7.40;99.90
23291;DHT22;11814;44.686;10.842;2022-12-18T03:19:28;7.40;99.90
23291;DHT22;11814;44.686;10.842;2022-12-18T03:22:01;7.40;99.90
23291;DHT22;11814;44.686;10.842;2022-12-18T03:24:30;7.40;99.90
23291;DHT22;11814;44.686;10.842;2022-12-18T03:27:01;7.30;99.90
23291;DHT22;11814;44.686;10.842;2022-12-18T03:29:37;7.40;99.90
23291;DHT22;11814;44.686;10.842;2022-12-18T03:32:13;7.30;99.90
23291;DHT22;11814;44.686;10.842;2022-12-18T03:34:42;7.30;99.90
23291;DHT22;11814;44.686;10.842;2022-12-18T03:37:09;7.30;99.90
23291;DHT22;11814;44.686;10.842;2022-12-18T03:39:35;7.30;99.90
23291;DHT22;11814;44.686;10.842;2022-12-18T03:42:04;7.30;99.90
23291;DHT22;11814;44.686;10.842;2022-12-18T03:49:54;7.30;99.90
23291;DHT22;11814;44.686;10.842;2022-12-18T03:52:49;7.30;99.90
23291;DHT22;11814;44.686;10.842;2022-12-18T03:55:18;7.30;99.90
23291;DHT22;11814;44.686;10.842;2022-12-18T03:57:46;7.40;99.90
23291;DHT22;11814;44.686;10.842;2022-12-18T04:00:14;7.40;99.90
23291;DHT22;11814;44.686;10.842;2022-12-18T04:02:48;7.40;99.90
23291;DHT22;11814;44.686;10.842;2022-12-18T04:05:15;7.40;99.90
23291;DHT22;11814;44.686;10.842;2022-12-18T04:07:43;7.40;99.90
23291;DHT22;11814;44.686;10.842;2022-12-18T04:10:09;7.40;99.90
23291;DHT22;11814;44.686;10.842;2022-12-18T04:12:37;7.40;99.90
23291;DHT22;11814;44.686;10.842;2022-12-18T04:15:03;7.50;99.90
23291;DHT22;11814;44.686;10.842;2022-12-18T04:17:29;7.40;99.90
23291;DHT22;11814;44.686;10.842;2022-12-18T04:19:55;7.50;99.90
23291;DHT22;11814;44.686;10.842;2022-12-18T04:22:21;7.50;99.90
23291;DHT22;11814;44.686;10.842;2022-12-18T04:24:46;7.40;99.90
23291;DHT22;11814;44.686;10.842;2022-12-18T04:27:12;7.40;99.90
23291;DHT22;11814;44.686;10.842;2022-12-18T04:29:38;7.40;99.90
23291;DHT22;11814;44.686;10.842;2022-12-18T04:32:04;7.40;99.90
23291;DHT22;11814;44.686;10.842;2022-12-18T04:34:29;7.40;99.90
23291;DHT22;11814;44.686;10.842;2022-12-18T04:36:55;7.40;99.90
23291;DHT22;11814;44.686;10.842;2022-12-18T04:39:21;7.50;99.90
23291;DHT22;11814;44.686;10.842;2022-12-18T04:41:47;7.40;99.90
23291;DHT22;11814;44.686;10.842;2022-12-18T04:44:13;7.40;99.90
23291;DHT22;11814;44.686;10.842;2022-12-18T04:46:39;7.40;99.90
23291;DHT22;11814;44.686;10.842;2022-12-18T04:49:04;7.40;99.90
23291;DHT22;11814;44.686;10.842;2022-12-18T04:51:30;7.40;99.90
23291;DHT22;11814;44.686;10.842;2022-12-18T04:53:56;7.40;99.90
23291;DHT22;11814;44.686;10.842;2022-12-18T04:56:21;7.40;99.90
23291;DHT22;11814;44.686;10.842;2022-12-18T04:58:47;7.40;99.90
23291;DHT22;11814;44.686;10.842;2022-12-18T05:01:15;7.30;99.90
23291;DHT22;11814;44.686;10.842;2022-12-18T05:03:41;7.30;99.90
23291;DHT22;11814;44.686;10.842;2022-12-18T05:06:07;7.30;99.90
23291;DHT22;11814;44.686;10.842;2022-12-18T05:08:33;7.30;99.90
23291;DHT22;11814;44.686;10.842;2022-12-18T05:11:11;7.20;99.90
23291;DHT22;11814;44.686;10.842;2022-12-18T05:13:39;7.20;99.90
23291;DHT22;11814;44.686;10.842;2022-12-18T05:16:05;7.20;99.90
23291;DHT22;11814;44.686;10.842;2022-12-18T05:18:31;7.20;99.90
23291;DHT22;11814;44.686;10.842;2022-12-18T05:20:57;7.20;99.90
23291;DHT22;11814;44.686;10.842;2022-12-18T05:23:24;7.10;99.90
23291;DHT22;11814;44.686;10.842;2022-12-18T05:25:55;7.10;99.90
23291;DHT22;11814;44.686;10.842;2022-12-18T05:28:21;7.10;99.90
23291;DHT22;11814;44.686;10.842;2022-12-18T05:30:51;7.10;99.90
23291;DHT22;11814;44.686;10.842;2022-12-18T05:33:19;7.00;99.90
23291;DHT22;11814;44.686;10.842;2022-12-18T05:35:49;7.10;99.90
23291;DHT22;11814;44.686;10.842;2022-12-18T05:38:15;7.00;99.90
23291;DHT22;11814;44.686;10.842;2022-12-18T05:40:42;7.00;99.90
23291;DHT22;11814;44.686;10.842;2022-12-18T05:43:09;7.00;99.90
23291;DHT22;11814;44.686;10.842;2022-12-18T05:45:37;7.00;99.90
23291;DHT22;11814;44.686;10.842;2022-12-18T05:48:04;7.00;99.90
23291;DHT22;11814;44.686;10.842;2022-12-18T05:50:29;6.90;99.90
23291;DHT22;11814;44.686;10.842;2022-12-18T05:52:55;6.90;99.90
23291;DHT22;11814;44.686;10.842;2022-12-18T05:55:21;6.90;99.90
23291;DHT22;11814;44.686;10.842;2022-12-18T05:57:46;6.90;99.90
23291;DHT22;11814;44.686;10.842;2022-12-18T06:00:13;6.90;99.90
23291;DHT22;11814;44.686;10.842;2022-12-18T06:02:38;6.90;99.90
23291;DHT22;11814;44.686;10.842;2022-12-18T06:05:05;6.90;99.90
23291;DHT22;11814;44.686;10.842;2022-12-18T06:07:30;6.90;99.90
23291;DHT22;11814;44.686;10.842;2022-12-18T06:09:56;6.90;99.90
23291;DHT22;11814;44.686;10.842;2022-12-18T06:12:22;6.80;99.90
23291;DHT22;11814;44.686;10.842;2022-12-18T06:14:48;6.80;99.90
23291;DHT22;11814;44.686;10.842;2022-12-18T06:17:13;6.80;99.90
23291;DHT22;11814;44.686;10.842;2022-12-18T06:19:39;6.80;99.90
23291;DHT22;11814;44.686;10.842;2022-12-18T06:22:05;6.80;99.90
23291;DHT22;11814;44.686;10.842;2022-12-18T06:24:30;6.70;99.90
23291;DHT22;11814;44.686;10.842;2022-12-18T06:26:56;6.70;99.90
23291;DHT22;11814;44.686;10.842;2022-12-18T06:29:22;6.70;99.90
23291;DHT22;11814;44.686;10.842;2022-12-18T06:31:47;6.60;99.90
23291;DHT22;11814;44.686;10.842;2022-12-18T06:34:13;6.60;99.90
23291;DHT22;11814;44.686;10.842;2022-12-18T06:36:39;6.60;99.90
23291;DHT22;11814;44.686;10.842;2022-12-18T06:39:04;6.60;99.90
23291;DHT22;11814;44.686;10.842;2022-12-18T06:41:30;6.50;99.90
23291;DHT22;11814;44.686;10.842;2022-12-18T06:43:57;6.50;99.90
23291;DHT22;11814;44.686;10.842;2022-12-18T06:46:23;6.50;99.90
23291;DHT22;11814;44.686;10.842;2022-12-18T06:48:50;6.40;99.90
23291;DHT22;11814;44.686;10.842;2022-12-18T06:51:18;6.40;99.90
23291;DHT22;11814;44.686;10.842;2022-12-18T06:53:43;6.40;99.90
23291;DHT22;11814;44.686;10.842;2022-12-18T06:56:09;6.40;99.90
23291;DHT22;11814;44.686;10.842;2022-12-18T06:58:35;6.40;99.90
23291;DHT22;11814;44.686;10.842;2022-12-18T07:01:02;6.30;99.90
23291;DHT22;11814;44.686;10.842;2022-12-18T07:03:28;6.30;99.90
23291;DHT22;11814;44.686;10.842;2022-12-18T07:05:54;6.30;99.90
23291;DHT22;11814;44.686;10.842;2022-12-18T07:08:20;6.30;99.90
23291;DHT22;11814;44.686;10.842;2022-12-18T07:10:46;6.30;99.90
23291;DHT22;11814;44.686;10.842;2022-12-18T07:13:15;6.30;99.90
23291;DHT22;11814;44.686;10.842;2022-12-18T07:15:41;6.30;99.90
23291;DHT22;11814;44.686;10.842;2022-12-18T07:18:06;6.30;99.90
23291;DHT22;11814;44.686;10.842;2022-12-18T07:20:32;6.30;99.90
23291;DHT22;11814;44.686;10.842;2022-12-18T07:22:58;6.30;99.90
23291;DHT22;11814;44.686;10.842;2022-12-18T07:25:24;6.30;99.90
23291;DHT22;11814;44.686;10.842;2022-12-18T07:27:49;6.30;99.90
23291;DHT22;11814;44.686;10.842;2022-12-18T07:30:15;6.30;99.90
23291;DHT22;11814;44.686;10.842;2022-12-18T07:32:41;6.30;99.90
23291;DHT22;11814;44.686;10.842;2022-12-18T07:35:07;6.30;99.90
23291;DHT22;11814;44.686;10.842;2022-12-18T07:37:32;6.30;99.90
23291;DHT22;11814;44.686;10.842;2022-12-18T07:39:58;6.30;99.90
23291;DHT22;11814;44.686;10.842;2022-12-18T07:42:24;6.30;99.90
23291;DHT22;11814;44.686;10.842;2022-12-18T07:44:56;6.30;99.90
23291;DHT22;11814;44.686;10.842;2022-12-18T07:47:22;6.30;99.90
23291;DHT22;11814;44.686;10.842;2022-12-18T07:49:48;6.40;99.90
23291;DHT22;11814;44.686;10.842;2022-12-18T07:52:13;6.40;99.90
23291;DHT22;11814;44.686;10.842;2022-12-18T07:54:39;6.40;99.90
23291;DHT22;11814;44.686;10.842;2022-12-18T07:57:06;6.40;99.90
23291;DHT22;11814;44.686;10.842;2022-12-18T07:59:32;6.40;99.90
23291;DHT22;11814;44.686;10.842;2022-12-18T08:01:58;6.40;99.90
23291;DHT22;11814;44.686;10.842;2022-12-18T08:04:24;6.40;99.90
23291;DHT22;11814;44.686;10.842;2022-12-18T08:06:50;6.40;99.90
23291;DHT22;11814;44.686;10.842;2022-12-18T08:09:16;6.50;99.90
23291;DHT22;11814;44.686;10.842;2022-12-18T08:11:42;6.50;99.90
23291;DHT22;11814;44.686;10.842;2022-12-18T08:14:08;6.50;99.90
23291;DHT22;11814;44.686;10.842;2022-12-18T08:16:34;6.50;99.90
23291;DHT22;11814;44.686;10.842;2022-12-18T08:19:00;6.50;99.90
23291;DHT22;11814;44.686;10.842;2022-12-18T08:21:28;6.50;99.90
23291;DHT22;11814;44.686;10.842;2022-12-18T08:23:56;6.50;99.90
23291;DHT22;11814;44.686;10.842;2022-12-18T08:26:23;6.60;99.90
23291;DHT22;11814;44.686;10.842;2022-12-18T08:28:50;6.60;99.90
23291;DHT22;11814;44.686;10.842;2022-12-18T08:31:16;6.60;99.90
23291;DHT22;11814;44.686;10.842;2022-12-18T08:33:42;6.60;99.90
23291;DHT22;11814;44.686;10.842;2022-12-18T08:36:09;6.60;99.90
23291;DHT22;11814;44.686;10.842;2022-12-18T08:38:35;6.70;99.90
23291;DHT22;11814;44.686;10.842;2022-12-18T08:41:06;6.70;99.90
23291;DHT22;11814;44.686;10.842;2022-12-18T08:43:33;6.90;99.90
23291;DHT22;11814;44.686;10.842;2022-12-18T08:46:19;7.40;99.90
23291;DHT22;11814;44.686;10.842;2022-12-18T08:48:45;8.30;99.90
23291;DHT22;11814;44.686;10.842;2022-12-18T08:51:10;9.10;99.90
23291;DHT22;11814;44.686;10.842;2022-12-18T08:53:36;9.80;99.90
23291;DHT22;11814;44.686;10.842;2022-12-18T08:56:03;10.40;99.90
23291;DHT22;11814;44.686;10.842;2022-12-18T08:58:29;10.90;99.90
23291;DHT22;11814;44.686;10.842;2022-12-18T09:01:00;11.60;99.90
23291;DHT22;11814;44.686;10.842;2022-12-18T09:03:27;11.90;99.90
23291;DHT22;11814;44.686;10.842;2022-12-18T09:05:53;11.80;99.90
23291;DHT22;11814;44.686;10.842;2022-12-18T09:08:18;11.70;99.90
23291;DHT22;11814;44.686;10.842;2022-12-18T09:10:46;11.50;99.90
23291;DHT22;11814;44.686;10.842;2022-12-18T09:13:13;11.30;99.90
23291;DHT22;11814;44.686;10.842;2022-12-18T09:15:51;11.10;99.90
23291;DHT22;11814;44.686;10.842;2022-12-18T09:18:18;11.00;99.90
23291;DHT22;11814;44.686;10.842;2022-12-18T09:20:44;11.00;99.90
23291;DHT22;11814;44.686;10.842;2022-12-18T09:23:10;11.20;99.90
23291;DHT22;11814;44.686;10.842;2022-12-18T09:25:37;11.50;99.90
23291;DHT22;11814;44.686;10.842;2022-12-18T09:28:13;11.70;99.90
23291;DHT22;11814;44.686;10.842;2022-12-18T09:30:45;12.00;99.90
23291;DHT22;11814;44.686;10.842;2022-12-18T09:33:11;12.20;99.90
23291;DHT22;11814;44.686;10.842;2022-12-18T09:35:42;12.30;99.90
23291;DHT22;11814;44.686;10.842;2022-12-18T09:38:12;12.30;99.90
23291;DHT22;11814;44.686;10.842;2022-12-18T09:40:52;12.40;99.90
23291;DHT22;11814;44.686;10.842;2022-12-18T09:45:51;12.60;99.90
23291;DHT22;11814;44.686;10.842;2022-12-18T09:48:40;12.50;99.60
23291;DHT22;11814;44.686;10.842;2022-12-18T09:51:14;12.60;99.30
23291;DHT22;11814;44.686;10.842;2022-12-18T09:53:42;12.60;99.10
23291;DHT22;11814;44.686;10.842;2022-12-18T09:56:16;12.70;98.70
23291;DHT22;11814;44.686;10.842;2022-12-18T10:01:21;12.30;97.40
23291;DHT22;11814;44.686;10.842;2022-12-18T10:03:48;12.10;97.10
23291;DHT22;11814;44.686;10.842;2022-12-18T10:06:23;11.90;97.00
23291;DHT22;11814;44.686;10.842;2022-12-18T10:11:49;11.60;97.20
23291;DHT22;11814;44.686;10.842;2022-12-18T10:20:02;11.30;98.30
23291;DHT22;11814;44.686;10.842;2022-12-18T10:28:21;11.50;98.00
23291;DHT22;11814;44.686;10.842;2022-12-18T10:30:47;11.90;98.10
23291;DHT22;11814;44.686;10.842;2022-12-18T10:33:27;12.10;98.30
23291;DHT22;11814;44.686;10.842;2022-12-18T10:35:54;12.20;98.20
23291;DHT22;11814;44.686;10.842;2022-12-18T10:38:31;12.20;97.80
23291;DHT22;11814;44.686;10.842;2022-12-18T10:43:44;12.20;96.30
23291;DHT22;11814;44.686;10.842;2022-12-18T10:51:06;12.00;96.00
23291;DHT22;11814;44.686;10.842;2022-12-18T10:53:34;11.90;95.90
23291;DHT22;11814;44.686;10.842;2022-12-18T10:56:03;11.90;95.70
23291;DHT22;11814;44.686;10.842;2022-12-18T10:58:30;11.90;95.70
23291;DHT22;11814;44.686;10.842;2022-12-18T11:01:16;12.10;95.40
23291;DHT22;11814;44.686;10.842;2022-12-18T11:03:58;12.50;95.50
23291;DHT22;11814;44.686;10.842;2022-12-18T11:06:25;12.60;95.50
23291;DHT22;11814;44.686;10.842;2022-12-18T11:09:03;12.60;95.00
23291;DHT22;11814;44.686;10.842;2022-12-18T11:11:31;12.50;94.60
23291;DHT22;11814;44.686;10.842;2022-12-18T11:14:05;12.50;94.20
23291;DHT22;11814;44.686;10.842;2022-12-18T11:16:42;12.30;94.30
23291;DHT22;11814;44.686;10.842;2022-12-18T11:19:21;12.20;94.30
23291;DHT22;11814;44.686;10.842;2022-12-18T11:21:51;12.10;94.40
23291;DHT22;11814;44.686;10.842;2022-12-18T11:24:31;12.00;94.60
23291;DHT22;11814;44.686;10.842;2022-12-18T11:27:06;12.00;95.10
23291;DHT22;11814;44.686;10.842;2022-12-18T11:29:41;12.40;95.10
23291;DHT22;11814;44.686;10.842;2022-12-18T11:32:43;12.80;94.80
23291;DHT22;11814;44.686;10.842;2022-12-18T11:37:58;13.70;94.10
23291;DHT22;11814;44.686;10.842;2022-12-18T11:40:35;13.80;93.50
23291;DHT22;11814;44.686;10.842;2022-12-18T11:43:16;14.00;92.30
23291;DHT22;11814;44.686;10.842;2022-12-18T11:46:13;14.00;91.60
23291;DHT22;11814;44.686;10.842;2022-12-18T11:48:52;14.20;91.30
23291;DHT22;11814;44.686;10.842;2022-12-18T11:51:29;14.30;91.20
23291;DHT22;11814;44.686;10.842;2022-12-18T11:53:57;14.60;90.70
23291;DHT22;11814;44.686;10.842;2022-12-18T11:56:32;15.20;89.30
23291;DHT22;11814;44.686;10.842;2022-12-18T11:59:19;15.80;86.40
23291;DHT22;11814;44.686;10.842;2022-12-18T12:01:52;16.10;84.00
23291;DHT22;11814;44.686;10.842;2022-12-18T12:04:43;16.40;82.10
23291;DHT22;11814;44.686;10.842;2022-12-18T12:18:19;17.40;74.00
23291;DHT22;11814;44.686;10.842;2022-12-18T12:23:38;17.60;70.80
23291;DHT22;11814;44.686;10.842;2022-12-18T12:26:22;17.50;70.40
23291;DHT22;11814;44.686;10.842;2022-12-18T12:34:49;16.40;70.50
23291;DHT22;11814;44.686;10.842;2022-12-18T12:39:54;16.10;71.10
23291;DHT22;11814;44.686;10.842;2022-12-18T12:42:39;16.00;71.40
23291;DHT22;11814;44.686;10.842;2022-12-18T12:45:52;15.60;70.90
23291;DHT22;11814;44.686;10.842;2022-12-18T12:50:52;14.70;71.00
23291;DHT22;11814;44.686;10.842;2022-12-18T12:53:28;14.60;72.10
23291;DHT22;11814;44.686;10.842;2022-12-18T12:55:56;14.50;73.40
23291;DHT22;11814;44.686;10.842;2022-12-18T12:58:34;14.20;74.70
23291;DHT22;11814;44.686;10.842;2022-12-18T13:06:58;13.40;78.00
23291;DHT22;11814;44.686;10.842;2022-12-18T13:09:24;13.20;78.10
23291;DHT22;11814;44.686;10.842;2022-12-18T13:12:07;13.00;78.50
23291;DHT22;11814;44.686;10.842;2022-12-18T13:15:12;12.80;79.10
23291;DHT22;11814;44.686;10.842;2022-12-18T13:17:39;12.70;79.60
23291;DHT22;11814;44.686;10.842;2022-12-18T13:20:13;12.60;79.90
23291;DHT22;11814;44.686;10.842;2022-12-18T13:22:48;12.50;80.40
23291;DHT22;11814;44.686;10.842;2022-12-18T13:38:34;12.00;81.80
23291;DHT22;11814;44.686;10.842;2022-12-18T13:43:54;11.90;82.30
23291;DHT22;11814;44.686;10.842;2022-12-18T13:46:49;11.90;83.10
23291;DHT22;11814;44.686;10.842;2022-12-18T13:51:46;11.80;83.70
23291;DHT22;11814;44.686;10.842;2022-12-18T13:56:48;11.60;85.00
23291;DHT22;11814;44.686;10.842;2022-12-18T13:59:23;11.60;86.40
23291;DHT22;11814;44.686;10.842;2022-12-18T14:01:58;11.50;86.40
23291;DHT22;11814;44.686;10.842;2022-12-18T14:07:17;11.40;87.10
23291;DHT22;11814;44.686;10.842;2022-12-18T14:09:43;11.30;87.40
23291;DHT22;11814;44.686;10.842;2022-12-18T14:12:37;11.30;87.50
23291;DHT22;11814;44.686;10.842;2022-12-18T14:20:21;11.20;87.80
23291;DHT22;11814;44.686;10.842;2022-12-18T14:22:48;11.20;88.10
23291;DHT22;11814;44.686;10.842;2022-12-18T14:25:36;11.20;88.20
23291;DHT22;11814;44.686;10.842;2022-12-18T14:28:13;11.10;88.50
23291;DHT22;11814;44.686;10.842;2022-12-18T14:30:41;11.10;88.90
23291;DHT22;11814;44.686;10.842;2022-12-18T14:36:02;11.00;89.90
23291;DHT22;11814;44.686;10.842;2022-12-18T14:38:34;10.90;90.30
23291;DHT22;11814;44.686;10.842;2022-12-18T14:43:32;10.70;90.80
23291;DHT22;11814;44.686;10.842;2022-12-18T14:45:58;10.70;91.10
23291;DHT22;11814;44.686;10.842;2022-12-18T14:48:41;10.70;91.30
23291;DHT22;11814;44.686;10.842;2022-12-18T14:53:39;10.60;91.80
23291;DHT22;11814;44.686;10.842;2022-12-18T14:56:24;10.60;92.00
23291;DHT22;11814;44.686;10.842;2022-12-18T14:58:55;10.50;92.10
23291;DHT22;11814;44.686;10.842;2022-12-18T15:01:28;10.40;92.20
23291;DHT22;11814;44.686;10.842;2022-12-18T15:03:55;10.40;92.40
23291;DHT22;11814;44.686;10.842;2022-12-18T15:08:53;10.30;92.70
23291;DHT22;11814;44.686;10.842;2022-12-18T15:11:45;10.20;92.80
23291;DHT22;11814;44.686;10.842;2022-12-18T15:16:56;10.10;93.40
23291;DHT22;11814;44.686;10.842;2022-12-18T15:19:37;10.10;93.50
23291;DHT22;11814;44.686;10.842;2022-12-18T15:22:04;10.00;93.80
23291;DHT22;11814;44.686;10.842;2022-12-18T15:24:31;9.90;93.90
23291;DHT22;11814;44.686;10.842;2022-12-18T15:26:58;9.80;94.20
23291;DHT22;11814;44.686;10.842;2022-12-18T15:29:24;9.80;94.40
23291;DHT22;11814;44.686;10.842;2022-12-18T15:32:01;9.70;94.90
23291;DHT22;11814;44.686;10.842;2022-12-18T15:34:28;9.60;95.00
23291;DHT22;11814;44.686;10.842;2022-12-18T15:36:53;9.60;95.30
23291;DHT22;11814;44.686;10.842;2022-12-18T15:39:19;9.40;95.50
23291;DHT22;11814;44.686;10.842;2022-12-18T15:41:45;9.40;95.90
23291;DHT22;11814;44.686;10.842;2022-12-18T15:44:29;9.30;96.30
23291;DHT22;11814;44.686;10.842;2022-12-18T15:46:55;9.30;96.60
23291;DHT22;11814;44.686;10.842;2022-12-18T15:49:21;9.20;97.00
23291;DHT22;11814;44.686;10.842;2022-12-18T15:51:57;9.10;97.40
23291;DHT22;11814;44.686;10.842;2022-12-18T15:54:24;9.10;97.80
23291;DHT22;11814;44.686;10.842;2022-12-18T15:57:10;9.00;98.40
23291;DHT22;11814;44.686;10.842;2022-12-18T15:59:48;9.00;98.90
23291;DHT22;11814;44.686;10.842;2022-12-18T16:02:16;8.90;99.40
23291;DHT22;11814;44.686;10.842;2022-12-18T16:04:42;8.80;99.90
23291;DHT22;11814;44.686;10.842;2022-12-18T16:07:09;8.80;99.90
23291;DHT22;11814;44.686;10.842;2022-12-18T16:09:35;8.80;99.90
23291;DHT22;11814;44.686;10.842;2022-12-18T16:12:01;8.70;99.90
23291;DHT22;11814;44.686;10.842;2022-12-18T16:14:29;8.60;99.90
23291;DHT22;11814;44.686;10.842;2022-12-18T16:17:00;8.60;99.90
23291;DHT22;11814;44.686;10.842;2022-12-18T16:19:27;8.50;99.90
23291;DHT22;11814;44.686;10.842;2022-12-18T16:21:55;8.50;99.90
23291;DHT22;11814;44.686;10.842;2022-12-18T16:24:26;8.50;99.90
23291;DHT22;11814;44.686;10.842;2022-12-18T16:26:53;8.40;99.90
23291;DHT22;11814;44.686;10.842;2022-12-18T16:29:20;8.40;99.90
23291;DHT22;11814;44.686;10.842;2022-12-18T16:31:50;8.30;99.90
23291;DHT22;11814;44.686;10.842;2022-12-18T16:34:31;8.30;99.90
23291;DHT22;11814;44.686;10.842;2022-12-18T16:37:03;8.20;99.90
23291;DHT22;11814;44.686;10.842;2022-12-18T16:39:29;8.20;99.90
23291;DHT22;11814;44.686;10.842;2022-12-18T16:41:55;8.20;99.90
23291;DHT22;11814;44.686;10.842;2022-12-18T16:44:22;8.10;99.90
23291;DHT22;11814;44.686;10.842;2022-12-18T16:46:47;8.10;99.90
23291;DHT22;11814;44.686;10.842;2022-12-18T16:49:17;8.00;99.90
23291;DHT22;11814;44.686;10.842;2022-12-18T16:51:45;8.00;99.90
23291;DHT22;11814;44.686;10.842;2022-12-18T16:54:12;7.90;99.90
23291;DHT22;11814;44.686;10.842;2022-12-18T16:56:38;7.80;99.90
23291;DHT22;11814;44.686;10.842;2022-12-18T16:59:04;7.80;99.90
23291;DHT22;11814;44.686;10.842;2022-12-18T17:01:30;7.80;99.90
23291;DHT22;11814;44.686;10.842;2022-12-18T17:03:59;7.70;99.90
23291;DHT22;11814;44.686;10.842;2022-12-18T17:06:26;7.70;99.90
23291;DHT22;11814;44.686;10.842;2022-12-18T17:09:00;7.70;99.90
23291;DHT22;11814;44.686;10.842;2022-12-18T17:11:29;7.60;99.90
23291;DHT22;11814;44.686;10.842;2022-12-18T17:13:55;7.60;99.90
23291;DHT22;11814;44.686;10.842;2022-12-18T17:16:21;7.60;99.90
23291;DHT22;11814;44.686;10.842;2022-12-18T17:18:48;7.50;99.90
23291;DHT22;11814;44.686;10.842;2022-12-18T17:21:14;7.50;99.90
23291;DHT22;11814;44.686;10.842;2022-12-18T17:23:41;7.40;99.90
23291;DHT22;11814;44.686;10.842;2022-12-18T17:26:08;7.40;99.90
23291;DHT22;11814;44.686;10.842;2022-12-18T17:28:36;7.30;99.90
23291;DHT22;11814;44.686;10.842;2022-12-18T17:31:12;7.30;99.90
23291;DHT22;11814;44.686;10.842;2022-12-18T17:33:38;7.30;99.90
23291;DHT22;11814;44.686;10.842;2022-12-18T17:36:04;7.20;99.90
23291;DHT22;11814;44.686;10.842;2022-12-18T17:38:30;7.20;99.90
23291;DHT22;11814;44.686;10.842;2022-12-18T17:41:01;7.10;99.90
23291;DHT22;11814;44.686;10.842;2022-12-18T17:43:27;7.10;99.90
23291;DHT22;11814;44.686;10.842;2022-12-18T17:45:52;7.00;99.90
23291;DHT22;11814;44.686;10.842;2022-12-18T17:48:18;6.90;99.90
23291;DHT22;11814;44.686;10.842;2022-12-18T17:50:44;6.90;99.90
23291;DHT22;11814;44.686;10.842;2022-12-18T17:53:10;6.80;99.90
23291;DHT22;11814;44.686;10.842;2022-12-18T17:55:36;6.80;99.90